Time;durP1;ratioP1;P1;durP2;ratioP2;P2;SDS_P1;SDS_P2;PMS_P1;PMS_P2;Temp;Humidity;BMP_temperature;BMP_pressure;BME280_temperature;BME280_humidity;BME280_pressure;Samples;Min_cycle;Max_cycle;Signal;HPM_P1;HPM_P2
2022/11/20 00:01:13;;;;;;;118.60;54.58;;;;;;;-3.71;100.00;97734.09;1713922;83;21089;-81
2022/11/20 00:03:40;;;;;;;135.75;58.48;;;;;;;-3.71;100.00;97727.98;1714135;83;20984;-81
2022/11/20 00:06:10;;;;;;;116.75;53.70;;;;;;;-3.66;100.00;97730.05;1714125;83;21030;-77
2022/11/20 00:08:37;;;;;;;123.40;54.03;;;;;;;-3.69;100.00;97720.65;1714085;83;21026;-77
2022/11/20 00:11:06;;;;;;;116.17;54.23;;;;;;;-3.60;100.00;97724.77;1714237;83;20947;-81
2022/11/20 00:13:33;;;;;;;;;;;;;;;-3.52;100.00;97729.08;1716641;82;21455;-77
2022/11/20 00:16:01;;;;;;;81.55;33.65;;;;;;;-3.49;100.00;97716.78;1714129;83;20127;-81
2022/11/20 00:18:28;;;;;;;105.85;50.73;;;;;;;-3.47;100.00;97712.10;1714285;83;21004;-77
2022/11/20 00:21:01;;;;;;;108.35;46.40;;;;;;;-3.50;100.00;97715.16;1714101;83;20971;-81
2022/11/20 00:23:28;;;;;;;129.60;57.65;;;;;;;-3.46;100.00;97716.38;1714181;83;21058;-78
2022/11/20 00:25:55;;;;;;;133.25;59.95;;;;;;;-3.51;100.00;97728.88;1714287;83;20984;-81
2022/11/20 00:28:22;;;;;;;133.85;63.38;;;;;;;-3.55;100.00;97722.86;1714225;83;20994;-81
2022/11/20 00:30:49;;;;;;;123.20;61.40;;;;;;;-3.53;100.00;97728.77;1716214;83;21020;-77
2022/11/20 00:33:16;;;;;;;138.43;59.08;;;;;;;-3.46;100.00;97734.92;1719502;83;20957;-81
2022/11/20 00:35:43;;;;;;;125.12;54.67;;;;;;;-3.42;100.00;97721.09;1719387;83;21000;-81
2022/11/20 00:38:10;;;;;;;120.35;58.92;;;;;;;-3.31;100.00;97725.00;1719314;83;20957;-81
2022/11/20 00:40:36;;;;;;;116.85;50.90;;;;;;;-3.28;100.00;97723.27;1719443;83;21004;-77
2022/11/20 00:43:03;;;;;;;124.00;55.38;;;;;;;-3.21;100.00;97728.09;1715137;83;21004;-81
2022/11/20 00:45:30;;;;;;;131.43;65.60;;;;;;;-3.24;100.00;97716.57;1714032;83;21035;-77
2022/11/20 00:47:57;;;;;;;138.95;64.22;;;;;;;-3.23;100.00;97720.04;1714345;83;21006;-77
2022/11/20 00:50:24;;;;;;;142.20;64.47;;;;;;;-3.22;100.00;97715.86;1714185;83;20968;-82
2022/11/20 00:52:51;;;;;;;135.10;60.75;;;;;;;-3.30;100.00;97706.76;1714242;82;21050;-77
2022/11/20 00:55:18;;;;;;;133.75;59.77;;;;;;;-3.28;100.00;97710.53;1714351;83;20996;-77
2022/11/20 00:57:45;;;;;;;138.88;59.93;;;;;;;-3.29;100.00;97714.20;1714308;83;21031;-80
2022/11/20 01:00:12;;;;;;;131.30;64.90;;;;;;;-3.34;100.00;97715.29;1714314;83;21004;-77
2022/11/20 01:02:38;;;;;;;140.12;62.25;;;;;;;-3.40;100.00;97715.59;1714145;83;21419;-77
2022/11/20 01:05:06;;;;;;;140.85;62.95;;;;;;;-3.43;100.00;97715.97;1714330;83;20995;-77
2022/11/20 01:07:33;;;;;;;129.82;59.42;;;;;;;-3.43;100.00;97710.67;1714251;83;21388;-77
2022/11/20 01:10:00;;;;;;;136.43;65.75;;;;;;;-3.45;100.00;97703.44;1714462;83;20995;-81
2022/11/20 01:12:26;;;;;;;136.97;61.37;;;;;;;-3.44;100.00;97696.61;1714328;83;21075;-77
2022/11/20 01:14:54;;;;;;;137.03;60.58;;;;;;;-3.46;100.00;97693.34;1714204;83;21109;-77
2022/11/20 01:17:21;;;;;;;139.28;59.65;;;;;;;-3.50;100.00;97693.45;1714351;83;21022;-81
2022/11/20 01:19:50;;;;;;;131.25;59.05;;;;;;;-3.54;100.00;97688.23;1714279;82;20995;-81
2022/11/20 01:22:17;;;;;;;111.05;53.95;;;;;;;-3.55;100.00;97687.92;1714168;82;21065;-81
2022/11/20 01:24:44;;;;;;;125.53;58.30;;;;;;;-3.59;100.00;97691.99;1714225;83;21019;-81
2022/11/20 01:27:11;;;;;;;140.52;64.42;;;;;;;-3.61;100.00;97686.05;1713982;83;21058;-81
2022/11/20 01:29:38;;;;;;;114.12;53.48;;;;;;;-3.64;100.00;97682.99;1714177;83;21015;-81
2022/11/20 01:32:05;;;;;;;141.00;59.58;;;;;;;-3.64;100.00;97685.13;1719152;83;21043;-77
2022/11/20 01:34:32;;;;;;;122.37;54.55;;;;;;;-3.68;100.00;97681.23;1719481;83;21500;-78
2022/11/20 01:36:58;;;;;;;134.22;59.73;;;;;;;-3.75;100.00;97675.11;1719204;83;21718;-77
2022/11/20 01:39:26;;;;;;;129.97;58.63;;;;;;;-3.79;100.00;97677.83;1719170;83;21409;-77
2022/11/20 01:44:59;;;;;;;129.12;61.40;;;;;;;-3.86;100.00;97676.97;1714279;83;21434;-77
2022/11/20 01:47:37;;;;;;;149.10;63.95;;;;;;;-3.89;100.00;97678.19;1713888;83;21542;-77
2022/11/20 01:50:23;;;;;;;108.42;47.48;;;;;;;-3.88;100.00;97665.27;1713875;82;21272;-77
2022/11/20 01:53:03;;;;;;;126.05;60.60;;;;;;;-3.99;100.00;97669.29;1714327;83;21404;-81
2022/11/20 01:55:43;;;;;;;129.38;58.55;;;;;;;-4.06;100.00;97668.94;1704324;83;20968;-77
2022/11/20 01:58:10;;;;;;;121.67;59.98;;;;;;;-4.10;100.00;97676.47;1714106;83;21010;-77
2022/11/20 02:00:37;;;;;;;125.97;56.30;;;;;;;-4.13;100.00;97668.08;1714210;83;21050;-81
2022/11/20 02:03:08;;;;;;;119.05;57.50;;;;;;;-4.12;100.00;97671.84;1714220;83;21019;-77
2022/11/20 02:05:56;;;;;;;116.42;53.50;;;;;;;-4.17;100.00;97680.08;1714067;83;20995;-77
2022/11/20 02:08:23;;;;;;;118.85;51.20;;;;;;;-4.20;100.00;97681.27;1714114;83;21030;-77
2022/11/20 02:10:50;;;;;;;111.40;48.48;;;;;;;-4.26;100.00;97690.81;1714178;82;20995;-82
2022/11/20 02:16:02;;;;;;;107.75;49.58;;;;;;;-4.39;100.00;97674.02;1714293;83;20991;-81
2022/11/20 02:18:30;;;;;;;122.02;54.48;;;;;;;-4.42;100.00;97679.20;1703722;83;21004;-77
2022/11/20 02:21:02;;;;;;;110.70;51.05;;;;;;;-4.41;100.00;97683.48;1714186;83;21026;-81
2022/11/20 02:23:39;;;;;;;117.72;53.38;;;;;;;-4.40;100.00;97692.23;1714190;82;21574;-77
2022/11/20 02:26:09;;;;;;;109.40;49.65;;;;;;;-4.38;100.00;97696.31;1714203;82;21391;-81
2022/11/20 02:28:35;;;;;;;115.47;48.92;;;;;;;-4.34;100.00;97692.28;1713986;83;21023;-81
2022/11/20 02:31:02;;;;;;;105.70;46.18;;;;;;;-4.36;100.00;97694.79;1713306;83;20982;-81
2022/11/20 02:33:29;;;;;;;106.67;49.95;;;;;;;-4.43;100.00;97693.44;1712513;82;20978;-81
2022/11/20 02:35:56;;;;;;;107.78;48.15;;;;;;;-4.45;100.00;97703.88;1712703;83;21017;-77
2022/11/20 02:38:23;;;;;;;106.12;49.63;;;;;;;-4.49;100.00;97698.17;1712550;82;20966;-81
2022/11/20 02:40:50;;;;;;;109.42;50.63;;;;;;;-4.48;100.00;97693.69;1712616;83;21636;-77
2022/11/20 02:43:17;;;;;;;114.70;51.30;;;;;;;-4.48;100.00;97687.08;1713812;83;21434;-77
2022/11/20 02:45:44;;;;;;;108.32;48.80;;;;;;;-4.52;100.00;97682.70;1714068;83;21063;-81
2022/11/20 02:48:10;;;;;;;113.55;51.25;;;;;;;-4.54;100.00;97670.95;1714150;83;20960;-81
2022/11/20 02:50:39;;;;;;;94.87;46.08;;;;;;;-4.61;100.00;97666.16;1714064;83;21035;-81
2022/11/20 02:53:06;;;;;;;99.87;46.92;;;;;;;-4.64;100.00;97673.63;1714283;82;21008;-77
2022/11/20 02:55:33;;;;;;;97.22;44.55;;;;;;;-4.63;100.00;97666.01;1703770;83;21002;-81
2022/11/20 02:58:00;;;;;;;103.30;48.52;;;;;;;-4.61;100.00;97671.95;1714109;83;20980;-77
2022/11/20 03:00:26;;;;;;;95.15;43.65;;;;;;;-4.60;100.00;97666.97;1714157;83;21039;-81
2022/11/20 03:02:53;;;;;;;91.10;39.58;;;;;;;-4.55;100.00;97667.19;1714220;83;20956;-81
2022/11/20 03:05:20;;;;;;;104.15;44.60;;;;;;;-4.58;100.00;97665.76;1714207;83;20993;-77
2022/11/20 03:07:47;;;;;;;86.60;43.60;;;;;;;-4.61;100.00;97666.66;1714286;83;21030;-77
2022/11/20 03:10:14;;;;;;;104.03;47.40;;;;;;;-4.63;100.00;97673.94;1714388;83;21453;-81
2022/11/20 03:12:41;;;;;;;90.53;41.20;;;;;;;-4.64;100.00;97674.45;1714306;82;20972;-77
2022/11/20 03:15:09;;;;;;;89.40;38.92;;;;;;;-4.64;100.00;97674.95;1714408;82;21054;-81
2022/11/20 03:17:36;;;;;;;70.97;32.33;;;;;;;-4.63;100.00;97676.59;1714349;83;21183;-81
2022/11/20 03:20:05;;;;;;;102.20;45.12;;;;;;;-4.63;100.00;97679.23;1714369;83;21003;-81
2022/11/20 03:22:32;;;;;;;92.65;41.40;;;;;;;-4.57;100.00;97675.32;1703689;83;21006;-77
2022/11/20 03:24:59;;;;;;;90.65;43.48;;;;;;;-4.52;100.00;97672.62;1714392;83;21397;-77
2022/11/20 03:27:26;;;;;;;100.05;45.48;;;;;;;-4.56;100.00;97667.70;1714005;83;21122;-81
2022/11/20 03:29:53;;;;;;;93.03;44.63;;;;;;;-4.53;100.00;97670.45;1714539;83;20963;-81
2022/11/20 03:32:20;;;;;;;94.80;41.80;;;;;;;-4.52;100.00;97671.30;1719260;83;20957;-77
2022/11/20 03:34:46;;;;;;;80.12;38.88;;;;;;;-4.55;100.00;97674.62;1719488;83;21503;-77
2022/11/20 03:37:13;;;;;;;98.33;43.55;;;;;;;-4.61;100.00;97668.80;1719291;83;21437;-77
2022/11/20 03:39:40;;;;;;;103.15;47.03;;;;;;;-4.61;100.00;97671.44;1719561;83;21035;-81
2022/11/20 03:42:44;;;;;;;98.67;47.98;;;;;;;-4.62;100.00;97664.48;1716901;83;21010;-77
2022/11/20 03:44:37;;;;;;;113.08;51.88;;;;;;;-4.59;100.00;97669.92;1712754;83;21272;-81
2022/11/20 03:47:06;;;;;;;108.32;51.37;;;;;;;-4.60;100.00;97666.46;1714264;83;21023;-77
2022/11/20 03:49:33;;;;;;;106.47;46.73;;;;;;;-4.60;100.00;97670.42;1714285;83;21415;-81
2022/11/20 03:52:00;;;;;;;102.90;45.85;;;;;;;-4.57;100.00;97670.03;1714448;83;20995;-81
2022/11/20 03:54:26;;;;;;;138.00;57.20;;;;;;;-4.55;100.00;97668.52;1714269;83;20966;-81
2022/11/20 03:56:53;;;;;;;133.60;57.10;;;;;;;-4.52;100.00;97666.83;1714271;83;20951;-77
2022/11/20 03:59:20;;;;;;;113.68;52.93;;;;;;;-4.51;100.00;97673.75;1714329;83;20963;-79
2022/11/20 04:01:47;;;;;;;114.08;50.33;;;;;;;-4.51;100.00;97673.75;1714431;83;20987;-79
2022/11/20 04:04:14;;;;;;;93.95;44.10;;;;;;;-4.50;100.00;97679.34;1714337;83;20999;-83
2022/11/20 04:06:41;;;;;;;102.87;46.53;;;;;;;-4.48;100.00;97670.70;1714429;83;21601;-79
2022/11/20 04:09:08;;;;;;;151.07;59.75;;;;;;;-4.46;100.00;97659.92;1714302;83;21431;-77
2022/11/20 04:11:36;;;;;;;115.57;49.20;;;;;;;-4.39;100.00;97663.44;1714210;83;21058;-81
2022/11/20 04:14:05;;;;;;;119.85;51.77;;;;;;;-4.39;100.00;97654.19;1714309;83;20964;-77
2022/11/20 04:16:35;;;;;;;111.50;51.40;;;;;;;-4.39;100.00;97652.86;1714283;83;21510;-81
2022/11/20 04:19:04;;;;;;;98.20;47.88;;;;;;;-4.37;100.00;97657.45;1714207;83;21271;-81
2022/11/20 04:21:31;;;;;;;94.77;44.65;;;;;;;-4.34;100.00;97655.25;1714156;83;20963;-78
2022/11/20 04:23:58;;;;;;;82.90;38.60;;;;;;;-4.31;100.00;97648.23;1714273;83;20967;-81
2022/11/20 04:26:27;;;;;;;87.88;41.48;;;;;;;-4.27;100.00;97651.33;1714184;83;20988;-81
2022/11/20 04:28:54;;;;;;;80.15;39.73;;;;;;;-4.23;100.00;97659.67;1714467;82;20975;-82
2022/11/20 04:31:27;;;;;;;93.60;41.55;;;;;;;-4.18;100.00;97660.74;1717499;83;21000;-77
2022/11/20 04:33:54;;;;;;;100.27;43.95;;;;;;;-4.15;100.00;97655.56;1719251;83;20957;-81
2022/11/20 04:36:24;;;;;;;91.15;43.05;;;;;;;-4.12;100.00;97649.35;1719387;83;21027;-81
2022/11/20 04:38:55;;;;;;;101.97;45.60;;;;;;;-4.10;100.00;97651.33;1719258;83;21030;-81
2022/11/20 04:41:24;;;;;;;87.40;45.10;;;;;;;-4.08;100.00;97649.80;1718528;83;21075;-81
2022/11/20 04:43:53;;;;;;;;;;;;;;;-4.08;100.00;97652.45;1716820;82;21013;-81
2022/11/20 04:46:20;;;;;;;;;;;;;;;-4.08;100.00;97650.61;1716844;83;20140;-81
2022/11/20 04:48:47;;;;;;;98.17;44.85;;;;;;;-4.09;100.00;97652.14;1714123;83;20419;-77
2022/11/20 04:51:14;;;;;;;94.67;43.45;;;;;;;-4.07;100.00;97653.56;1704098;83;20983;-81
2022/11/20 04:53:41;;;;;;;93.55;42.67;;;;;;;-4.02;100.00;97647.67;1714179;83;20979;-77
2022/11/20 04:56:10;;;;;;;84.62;40.55;;;;;;;-3.98;100.00;97646.28;1714295;83;20975;-81
2022/11/20 04:58:37;;;;;;;81.32;35.83;;;;;;;-3.98;100.00;97641.80;1714209;83;28149;-81
2022/11/20 05:01:14;;;;;;;78.87;36.55;;;;;;;-3.95;100.00;97641.09;1714109;83;21487;-81
2022/11/20 05:03:42;;;;;;;74.35;36.50;;;;;;;-4.01;100.00;97638.23;1714097;83;21509;-81
2022/11/20 05:06:10;;;;;;;84.15;39.40;;;;;;;-4.07;100.00;97639.02;1714354;82;21003;-81
2022/11/20 05:08:37;;;;;;;76.75;38.63;;;;;;;-4.03;100.00;97630.16;1714228;83;21479;-82
2022/11/20 05:11:07;;;;;;;64.12;32.30;;;;;;;-3.98;100.00;97623.27;1713980;83;21153;-77
2022/11/20 05:13:34;;;;;;;73.60;34.05;;;;;;;-4.01;100.00;97617.06;1714175;82;21022;-81
2022/11/20 05:16:04;;;;;;;75.35;36.13;;;;;;;-4.04;100.00;97624.56;1714355;82;20964;-81
2022/11/20 05:18:32;;;;;;;68.28;33.05;;;;;;;-4.08;100.00;97620.69;1713925;81;21023;-81
2022/11/20 05:20:59;;;;;;;66.10;31.23;;;;;;;-4.05;100.00;97618.45;1704156;83;21003;-81
2022/11/20 05:23:26;;;;;;;71.82;34.30;;;;;;;-4.00;100.00;97618.69;1714054;83;20940;-77
2022/11/20 05:25:54;;;;;;;69.00;35.08;;;;;;;-4.01;100.00;97617.06;1714261;82;21400;-81
2022/11/20 05:28:22;;;;;;;88.95;41.45;;;;;;;-3.95;100.00;97617.27;1714204;82;20967;-81
2022/11/20 05:30:48;;;;;;;79.67;36.68;;;;;;;-3.92;100.00;97611.59;1716440;83;21518;-81
2022/11/20 05:33:15;;;;;;;79.82;37.00;;;;;;;-3.93;100.00;97615.23;1719282;83;21016;-76
2022/11/20 05:35:42;;;;;;;73.72;36.20;;;;;;;-3.91;100.00;97617.20;1719558;83;20965;-77
2022/11/20 05:38:09;;;;;;;79.20;37.83;;;;;;;-3.94;100.00;97614.92;1719195;83;20949;-81
2022/11/20 05:40:36;;;;;;;75.12;33.48;;;;;;;-3.94;100.00;97617.06;1719452;83;20997;-81
2022/11/20 05:43:03;;;;;;;73.20;36.05;;;;;;;-3.94;100.00;97615.74;1714888;83;21431;-81
2022/11/20 05:45:30;;;;;;;74.03;37.08;;;;;;;-3.94;100.00;97615.74;1713997;83;20972;-81
2022/11/20 05:48:00;;;;;;;70.97;35.25;;;;;;;-3.94;100.00;97617.06;1713931;83;21463;-81
2022/11/20 05:50:27;;;;;;;80.00;35.95;;;;;;;-3.96;100.00;97615.13;1714383;83;21278;-77
2022/11/20 05:52:54;;;;;;;77.40;38.08;;;;;;;-3.97;100.00;97617.47;1714054;83;21003;-77
2022/11/20 05:55:21;;;;;;;77.65;35.17;;;;;;;-3.93;100.00;97617.88;1714240;83;21412;-81
2022/11/20 05:57:48;;;;;;;69.62;34.75;;;;;;;-3.94;100.00;97618.39;1713952;83;21020;-81
2022/11/20 06:00:16;;;;;;;77.65;38.00;;;;;;;-3.97;100.00;97618.80;1714206;83;21050;-77
2022/11/20 06:02:43;;;;;;;88.58;38.13;;;;;;;-3.96;100.00;97617.78;1713911;83;20987;-77
2022/11/20 06:05:09;;;;;;;81.25;39.25;;;;;;;-3.97;100.00;97617.47;1714242;83;21007;-81
2022/11/20 06:07:36;;;;;;;92.33;43.70;;;;;;;-3.92;100.00;97621.68;1714037;82;21419;-77
2022/11/20 06:10:04;;;;;;;85.03;41.28;;;;;;;-3.93;100.00;97616.08;1714157;83;21046;-77
2022/11/20 06:12:32;;;;;;;84.47;43.65;;;;;;;-3.90;100.00;97613.53;1713539;83;21006;-77
2022/11/20 06:14:59;;;;;;;82.72;40.80;;;;;;;-3.90;100.00;97610.89;1714135;83;21612;-77
2022/11/20 06:17:26;;;;;;;81.15;42.35;;;;;;;-3.88;100.00;97604.38;1713652;82;21055;-81
2022/11/20 06:19:53;;;;;;;86.10;41.28;;;;;;;-3.83;100.00;97606.44;1713992;83;21396;-81
2022/11/20 06:22:20;;;;;;;76.10;38.88;;;;;;;-3.84;100.00;97600.84;1713936;83;21008;-81
2022/11/20 06:24:47;;;;;;;86.67;41.98;;;;;;;-3.78;100.00;97598.19;1713875;83;20987;-77
2022/11/20 06:27:14;;;;;;;90.50;40.33;;;;;;;-3.77;100.00;97595.03;1713782;83;21022;-81
2022/11/20 06:29:41;;;;;;;85.12;38.95;;;;;;;-3.70;100.00;97587.93;1713941;83;20968;-81
2022/11/20 06:32:08;;;;;;;77.67;35.15;;;;;;;-3.65;100.00;97590.81;1718804;83;21039;-81
2022/11/20 06:34:35;;;;;;;71.15;34.53;;;;;;;-3.66;100.00;97585.72;1719336;83;20968;-81
2022/11/20 06:37:02;;;;;;;70.28;32.38;;;;;;;-3.63;100.00;97592.73;1719250;83;20950;-76
2022/11/20 06:39:29;;;;;;;81.08;34.85;;;;;;;-3.62;100.00;97589.58;1719049;83;21035;-77
2022/11/20 06:41:55;;;;;;;64.80;32.05;;;;;;;-3.57;100.00;97580.03;1715664;83;20991;-77
2022/11/20 06:44:22;;;;;;;73.78;34.70;;;;;;;-3.50;100.00;97580.05;1714044;83;21050;-81
2022/11/20 06:46:49;;;;;;;66.97;33.10;;;;;;;-3.47;100.00;97586.27;1714130;83;20995;-77
2022/11/20 06:49:16;;;;;;;76.17;37.45;;;;;;;-3.45;100.00;97590.84;1714020;83;20959;-81
2022/11/20 06:51:43;;;;;;;76.37;37.83;;;;;;;-3.47;100.00;97583.10;1714583;83;20993;-77
2022/11/20 06:54:10;;;;;;;71.80;36.65;;;;;;;-3.43;100.00;97588.80;1713777;82;21423;-77
2022/11/20 06:56:37;;;;;;;86.00;40.45;;;;;;;-3.39;100.00;97590.56;1714101;83;21479;-77
2022/11/20 06:59:06;;;;;;;80.83;37.73;;;;;;;-3.32;100.00;97590.06;1714172;83;21023;-77
2022/11/20 07:01:32;;;;;;;;;;;;;;;-3.27;100.00;97587.09;1716690;83;21003;-81
2022/11/20 07:03:59;;;;;;;66.70;34.48;;;;;;;-3.25;100.00;97586.38;1710982;83;20171;-77
2022/11/20 07:06:26;;;;;;;82.57;36.48;;;;;;;-3.19;100.00;97588.73;1684159;84;21015;-77
2022/11/20 07:08:53;;;;;;;81.22;36.00;;;;;;;-3.16;100.00;97585.70;1683998;83;21070;-81
2022/11/20 07:11:20;;;;;;;88.30;41.60;;;;;;;-3.15;100.00;97584.17;1684363;84;21435;-77
2022/11/20 07:13:47;;;;;;;90.87;40.52;;;;;;;-3.11;100.00;97583.24;1684048;83;21007;-77
2022/11/20 07:16:14;;;;;;;95.05;41.28;;;;;;;-3.03;100.00;97572.95;1684146;84;20974;-77
2022/11/20 07:18:41;;;;;;;86.12;43.55;;;;;;;-2.96;100.00;97572.45;1683925;83;21430;-77
2022/11/20 07:21:09;;;;;;;89.97;43.35;;;;;;;-2.92;100.00;97569.16;1684318;84;21002;-81
2022/11/20 07:23:36;;;;;;;102.20;48.28;;;;;;;-2.87;100.00;97569.89;1673993;84;27438;-81
2022/11/20 07:26:08;;;;;;;88.33;43.42;;;;;;;-2.81;100.00;97570.41;1684172;84;20998;-81
2022/11/20 07:28:35;;;;;;;102.55;47.08;;;;;;;-2.75;100.00;97574.86;1682995;83;21031;-81
2022/11/20 07:31:02;;;;;;;86.87;42.25;;;;;;;-2.75;100.00;97577.52;1698247;83;20962;-77
2022/11/20 07:33:29;;;;;;;100.87;45.05;;;;;;;-2.66;100.00;97581.58;1712511;82;22102;-81
2022/11/20 07:35:57;;;;;;;93.82;42.48;;;;;;;-2.61;100.00;97584.45;1712797;83;21069;-81
2022/11/20 07:38:24;;;;;;;81.80;39.45;;;;;;;-2.52;100.00;97586.88;1691729;83;21490;-76
2022/11/20 07:40:55;;;;;;;91.80;43.02;;;;;;;-2.48;100.00;97588.09;1712761;83;20959;-81
2022/11/20 07:43:22;;;;;;;90.25;38.63;;;;;;;-2.48;100.00;97591.55;1737981;81;20957;-81
2022/11/20 07:45:49;;;;;;;89.50;41.68;;;;;;;-2.43;100.00;97593.09;1739151;82;21004;-77
2022/11/20 07:48:16;;;;;;;89.20;42.20;;;;;;;-2.32;100.00;97591.11;1738985;81;20992;-77
2022/11/20 07:50:43;;;;;;;81.28;37.48;;;;;;;-2.19;100.00;97586.30;1739136;82;21040;-81
2022/11/20 07:53:10;;;;;;;76.20;35.15;;;;;;;-2.03;100.00;97586.35;1738841;81;20958;-80
2022/11/20 07:55:37;;;;;;;76.15;36.75;;;;;;;-1.95;100.00;97584.79;1739205;82;20972;-77
2022/11/20 07:58:04;;;;;;;84.72;40.40;;;;;;;-1.79;100.00;97580.84;1739013;81;21087;-77
2022/11/20 08:00:31;;;;;;;71.20;35.45;;;;;;;-1.73;100.00;97582.63;1739010;82;21013;-81
2022/11/20 08:02:57;;;;;;;84.97;39.50;;;;;;;-1.65;100.00;97585.05;1738901;81;21468;-77
2022/11/20 08:05:24;;;;;;;87.33;40.33;;;;;;;-1.61;100.00;97589.44;1739037;82;21461;-77
2022/11/20 08:07:51;;;;;;;86.78;40.90;;;;;;;-1.53;100.00;97591.34;1738867;81;20985;-82
2022/11/20 08:10:18;;;;;;;76.62;37.88;;;;;;;-1.41;100.00;97588.80;1739213;82;20988;-77
2022/11/20 08:15:34;;;;;;;85.77;42.98;;;;;;;-1.10;100.00;97586.67;1738795;82;21460;-81
2022/11/20 08:18:11;;;;;;;82.22;37.23;;;;;;;-0.87;100.00;97588.72;1738978;81;20977;-81
2022/11/20 08:20:38;;;;;;;80.05;37.23;;;;;;;-0.75;100.00;97580.35;1738506;82;21067;-77
2022/11/20 08:23:06;;;;;;;69.87;34.98;;;;;;;-0.74;100.00;97581.16;1738826;81;20989;-83
2022/11/20 08:25:34;;;;;;;62.15;31.35;;;;;;;-0.67;100.00;97580.59;1739122;82;21100;-77
2022/11/20 08:28:04;;;;;;;85.77;44.67;;;;;;;-0.63;100.00;97583.10;1739004;81;21004;-81
2022/11/20 08:30:32;;;;;;;75.75;38.55;;;;;;;-0.55;100.00;97582.82;1732062;82;20982;-77
2022/11/20 08:33:04;;;;;;;90.45;43.25;;;;;;;-0.48;100.00;97574.27;1714173;83;21076;-81
2022/11/20 08:35:37;;;;;;;93.87;46.90;;;;;;;-0.41;100.00;97587.00;1714215;83;20981;-77
2022/11/20 08:38:05;;;;;;;83.75;40.58;;;;;;;-0.30;100.00;97590.77;1713890;82;21049;-78
2022/11/20 08:40:32;;;;;;;88.30;43.42;;;;;;;-0.21;100.00;97588.63;1714169;83;20959;-77
2022/11/20 08:42:59;;;;;;;84.87;43.35;;;;;;;-0.23;100.00;97588.86;1702052;83;21065;-82
2022/11/20 08:45:26;;;;;;;84.70;40.83;;;;;;;-0.26;100.00;97595.94;1699153;83;21438;-77
2022/11/20 08:47:53;;;;;;;77.03;37.53;;;;;;;-0.29;100.00;97592.39;1699128;83;21057;-78
2022/11/20 08:50:20;;;;;;;86.53;40.35;;;;;;;-0.36;100.00;97592.45;1699389;83;20987;-79
2022/11/20 08:52:46;;;;;;;70.12;37.98;;;;;;;-0.31;100.00;97587.30;1699133;84;21034;-82
2022/11/20 08:55:13;;;;;;;78.65;41.90;;;;;;;-0.24;100.00;97587.23;1699315;83;21061;-77
2022/11/20 08:57:40;;;;;;;91.87;42.60;;;;;;;-0.25;100.00;97588.80;1699083;84;21422;-81
2022/11/20 09:00:09;;;;;;;82.75;41.85;;;;;;;-0.19;100.00;97582.56;1699269;84;21775;-77
2022/11/20 09:02:37;;;;;;;92.88;45.52;;;;;;;-0.15;100.00;97572.59;1679176;84;21139;-81
2022/11/20 09:05:06;;;;;;;90.80;47.38;;;;;;;-0.03;100.00;97577.98;1699299;83;21057;-78
2022/11/20 09:07:33;;;;;;;;;;;;;;;0.02;100.00;97576.80;1701553;84;21009;-82
2022/11/20 09:09:59;;;;;;;88.92;44.10;;;;;;;0.08;100.00;97579.88;1699052;83;20133;-77
2022/11/20 09:12:26;;;;;;;91.67;47.33;;;;;;;0.03;100.00;97574.95;1699202;84;21106;-77
2022/11/20 09:14:53;;;;;;;92.27;46.55;;;;;;;0.13;100.00;97574.71;1699114;83;21014;-82
2022/11/20 09:17:20;;;;;;;83.55;42.60;;;;;;;0.22;100.00;97569.37;1699075;83;21442;-82
2022/11/20 09:19:47;;;;;;;83.42;39.78;;;;;;;0.28;100.00;97568.48;1699235;83;20969;-81
2022/11/20 09:22:14;;;;;;;66.25;35.80;;;;;;;0.27;100.00;97570.05;1699104;83;21061;-78
2022/11/20 09:24:42;;;;;;;67.95;35.10;;;;;;;0.26;100.00;97573.75;1699256;83;20978;-77
2022/11/20 09:27:09;;;;;;;67.00;35.73;;;;;;;0.24;100.00;97579.80;1699406;84;21518;-81
2022/11/20 09:29:36;;;;;;;73.65;37.23;;;;;;;0.21;100.00;97579.73;1699138;83;21155;-77
2022/11/20 09:32:03;;;;;;;73.45;38.53;;;;;;;0.25;100.00;97577.42;1711567;83;21059;-82
2022/11/20 09:34:30;;;;;;;68.25;36.70;;;;;;;0.24;100.00;97573.95;1712280;83;21029;-82
2022/11/20 09:36:57;;;;;;;64.20;30.68;;;;;;;0.26;100.00;97573.75;1712641;83;21482;-82
2022/11/20 09:39:24;;;;;;;55.80;30.23;;;;;;;0.28;100.00;97578.33;1712268;82;21061;-81
2022/11/20 09:42:06;;;;;;;60.67;31.77;;;;;;;0.32;100.00;97579.49;1713079;83;21003;-81
2022/11/20 09:45:16;;;;;;;62.17;30.10;;;;;;;0.26;100.00;97571.89;1713588;83;21020;-77
2022/11/20 09:48:19;;;;;;;61.53;33.18;;;;;;;0.28;100.00;97574.33;1714117;83;20986;-81
2022/11/20 09:51:07;;;;;;;53.15;28.23;;;;;;;0.26;100.00;97575.08;1714351;82;21049;-77
2022/11/20 09:53:48;;;;;;;62.75;30.57;;;;;;;0.25;100.00;97580.91;1713781;82;20992;-77
2022/11/20 09:56:15;;;;;;;57.17;29.00;;;;;;;0.28;100.00;97572.48;1713966;82;20963;-77
2022/11/20 09:58:45;;;;;;;63.08;33.15;;;;;;;0.28;100.00;97583.14;1714029;83;21466;-78
2022/11/20 10:01:19;;;;;;;54.53;29.37;;;;;;;0.32;100.00;97578.16;1713983;83;21351;-82
2022/11/20 10:04:04;;;;;;;56.88;27.95;;;;;;;0.35;100.00;97580.92;1713934;83;21031;-82
2022/11/20 10:06:40;;;;;;;51.13;27.35;;;;;;;0.36;100.00;97583.88;1714145;83;21035;-77
2022/11/20 10:09:15;;;;;;;83.22;38.67;;;;;;;0.35;100.00;97583.59;1713947;82;20936;-77
2022/11/20 10:11:57;;;;;;;82.17;35.08;;;;;;;0.36;100.00;97582.02;1714279;82;21050;-81
2022/11/20 10:14:35;;;;;;;57.17;28.85;;;;;;;0.41;100.00;97579.47;1713680;83;20987;-82
2022/11/20 10:17:25;;;;;;;53.90;27.37;;;;;;;0.37;100.00;97578.31;1714349;82;20995;-78
2022/11/20 10:20:16;;;;;;;65.28;31.25;;;;;;;0.40;100.00;97575.19;1714047;83;21211;-81
2022/11/20 10:23:28;;;;;;;72.78;33.85;;;;;;;0.43;100.00;97580.09;1713978;82;20996;-82
2022/11/20 10:26:06;;;;;;;54.65;26.68;;;;;;;0.39;100.00;97583.41;1714243;83;21007;-81
2022/11/20 10:28:44;;;;;;;60.98;28.30;;;;;;;0.32;100.00;97570.69;1706401;83;20999;-82
2022/11/20 10:31:16;;;;;;;48.23;25.95;;;;;;;0.36;100.00;97570.03;1717094;83;21008;-82
2022/11/20 10:33:45;;;;;;;45.43;24.80;;;;;;;0.39;100.00;97563.42;1719068;82;21016;-77
2022/11/20 10:36:21;;;;;;;56.30;29.07;;;;;;;0.44;100.00;97564.38;1719247;83;21472;-77
2022/11/20 10:38:54;;;;;;;53.75;27.82;;;;;;;0.49;100.00;97557.84;1718942;83;21007;-82
2022/11/20 10:41:28;;;;;;;55.83;26.65;;;;;;;0.57;100.00;97559.38;1718928;83;21000;-81
2022/11/20 10:47:05;;;;;;;54.60;28.52;;;;;;;0.64;100.00;97545.95;1714238;83;21022;-82
2022/11/20 10:49:32;;;;;;;;;;;;;;;0.65;100.00;97539.57;1716408;82;20972;-82
2022/11/20 10:52:11;;;;;;;54.93;30.12;;;;;;;0.63;99.42;97541.66;1714115;83;20458;-82
2022/11/20 10:54:49;;;;;;;56.10;30.00;;;;;;;0.67;100.00;97536.96;1714102;82;22068;-81
2022/11/20 10:57:33;;;;;;;65.87;31.12;;;;;;;0.71;100.00;97539.48;1714020;82;21050;-77
2022/11/20 11:00:10;;;;;;;62.27;30.65;;;;;;;0.76;100.00;97530.25;1713621;83;20976;-82
2022/11/20 11:02:53;;;;;;;57.62;29.42;;;;;;;0.86;100.00;97537.72;1713756;82;20994;-81
2022/11/20 11:05:50;;;;;;;63.95;33.90;;;;;;;0.90;100.00;97530.87;1714110;83;20967;-82
2022/11/20 11:08:18;;;;;;;56.98;31.20;;;;;;;0.95;100.00;97535.02;1714059;82;21011;-81
2022/11/20 11:10:55;;;;;;;60.95;32.25;;;;;;;0.93;98.76;97531.73;1714269;83;21023;-77
2022/11/20 11:13:27;;;;;;;67.72;37.45;;;;;;;1.03;100.00;97529.86;1713965;83;20976;-77
2022/11/20 11:15:54;;;;;;;73.00;37.03;;;;;;;1.08;99.57;97523.30;1714206;83;21041;-77
2022/11/20 11:18:34;;;;;;;62.20;34.45;;;;;;;1.18;100.00;97518.72;1714015;83;21423;-78
2022/11/20 11:21:03;;;;;;;63.52;35.13;;;;;;;1.12;97.88;97513.80;1714172;83;20980;-77
2022/11/20 11:23:39;;;;;;;66.25;33.55;;;;;;;1.12;97.89;97513.80;1713876;83;21038;-81
2022/11/20 11:26:21;;;;;;;68.78;32.88;;;;;;;1.15;98.83;97517.85;1714196;82;21184;-81
2022/11/20 11:29:00;;;;;;;62.55;33.63;;;;;;;1.09;97.21;97518.25;1704810;83;21042;-77
2022/11/20 11:31:30;;;;;;;74.07;36.73;;;;;;;1.26;98.99;97516.52;1713132;83;22211;-78